createdAt,value
2023-02-28T00:03:00.806Z,81.10
2023-02-28T00:08:05.185Z,82.44
2023-02-28T00:13:09.581Z,82.68
2023-02-28T00:18:15.121Z,90.30
2023-02-28T00:23:19.097Z,92.00
2023-02-28T00:28:23.793Z,92.99
2023-02-28T00:33:29.228Z,87.50
2023-02-28T00:38:33.616Z,85.75
2023-02-28T00:43:40.222Z,84.27
2023-02-28T00:48:46.030Z,88.82
2023-02-28T00:53:50.022Z,87.75
2023-02-28T00:58:54.669Z,84.81
2023-02-28T01:04:00.133Z,88.77
2023-02-28T01:09:05.387Z,86.85
2023-02-28T01:14:10.770Z,91.58
2023-02-28T01:19:17.767Z,91.49
2023-02-28T01:24:21.778Z,91.68
2023-02-28T01:29:27.066Z,94.02
2023-02-28T01:34:32.848Z,95.51
2023-02-28T01:39:37.023Z,97.95
2023-02-28T01:45:05.376Z,98.40
2023-02-28T01:50:16.787Z,99.83
2023-02-28T01:55:23.489Z,97.18
2023-02-28T02:00:29.569Z,96.69
2023-02-28T02:05:35.570Z,94.67
2023-02-28T02:10:42.997Z,93.10
2023-02-28T02:15:54.282Z,94.65
2023-02-28T02:21:27.194Z,96.62
2023-02-28T02:27:00.753Z,95.59
2023-02-28T02:32:23.245Z,93.50
2023-02-28T02:37:33.397Z,97.89
2023-02-28T02:42:41.989Z,100.00
2023-02-28T02:47:47.293Z,100.00
2023-02-28T02:52:55.980Z,100.00
2023-02-28T02:58:03.621Z,100.00
2023-02-28T03:03:09.225Z,100.00
2023-02-28T03:08:15.754Z,100.00
2023-02-28T03:13:42.097Z,100.00
2023-02-28T03:18:55.157Z,100.00
2023-02-28T03:24:05.341Z,100.00
2023-02-28T03:29:17.968Z,100.00
2023-02-28T03:34:28.697Z,100.00
2023-02-28T03:39:39.698Z,100.00
2023-02-28T03:44:45.687Z,100.00
2023-02-28T03:49:53.535Z,100.00
2023-02-28T03:55:03.687Z,100.00
2023-02-28T04:00:11.180Z,100.00
2023-02-28T04:05:18.759Z,100.00
2023-02-28T04:10:24.600Z,100.00
2023-02-28T04:15:28.555Z,100.00
2023-02-28T04:20:32.522Z,100.00
2023-02-28T04:25:38.246Z,100.00
2023-02-28T04:30:42.636Z,100.00
2023-02-28T04:35:47.217Z,100.00
2023-02-28T04:40:52.693Z,100.00
2023-02-28T04:45:57.945Z,100.00
2023-02-28T04:51:02.783Z,100.00
2023-02-28T04:56:09.398Z,100.00
2023-02-28T05:01:25.012Z,100.00
2023-02-28T05:06:31.163Z,100.00
2023-02-28T05:11:37.034Z,100.00
2023-02-28T05:16:41.215Z,100.00
2023-02-28T05:21:52.499Z,100.00
2023-02-28T05:26:58.288Z,100.00
2023-02-28T05:32:02.314Z,100.00
2023-02-28T05:37:07.133Z,100.00
2023-02-28T05:42:12.358Z,100.00
2023-02-28T05:47:16.728Z,100.00
2023-02-28T05:52:20.620Z,100.00
2023-02-28T05:57:26.816Z,100.00
2023-02-28T06:02:30.972Z,100.00
2023-02-28T06:07:35.033Z,100.00
2023-02-28T06:12:42.678Z,100.00
2023-02-28T06:17:47.514Z,100.00
2023-02-28T06:22:52.311Z,100.00
2023-02-28T06:27:58.103Z,100.00
2023-02-28T06:33:01.993Z,100.00
2023-02-28T06:38:06.386Z,100.00
2023-02-28T06:43:14.626Z,100.00
2023-02-28T06:48:18.899Z,100.00
2023-02-28T06:53:22.884Z,100.00
2023-02-28T06:58:28.131Z,100.00
2023-02-28T07:03:34.275Z,100.00
2023-02-28T07:08:38.676Z,100.00
2023-02-28T07:13:44.062Z,100.00
2023-02-28T07:18:48.110Z,100.00
2023-02-28T07:23:52.513Z,100.00
2023-02-28T07:28:57.992Z,95.73
2023-02-28T07:34:01.889Z,91.92
2023-02-28T07:39:06.689Z,88.63
2023-02-28T07:44:12.452Z,89.34
2023-02-28T07:49:16.709Z,85.65
2023-02-28T07:54:20.837Z,85.24
2023-02-28T07:59:26.545Z,85.04
2023-02-28T08:04:33.722Z,83.92
2023-02-28T08:09:37.881Z,80.64
2023-02-28T08:14:43.477Z,81.07
2023-02-28T08:19:48.174Z,74.75
2023-02-28T08:24:52.266Z,74.59
2023-02-28T08:29:57.713Z,71.28
2023-02-28T08:35:02.846Z,70.79
2023-02-28T08:40:08.945Z,69.66
2023-02-28T08:45:15.214Z,68.63
2023-02-28T08:50:19.634Z,69.27
2023-02-28T08:55:23.843Z,69.89
2023-02-28T09:00:29.538Z,68.59
2023-02-28T09:05:34.032Z,69.39
2023-02-28T09:10:38.256Z,68.94
2023-02-28T09:15:43.740Z,68.55
2023-02-28T09:20:47.902Z,67.49
2023-02-28T09:25:53.664Z,67.40
2023-02-28T09:31:00.003Z,68.63
2023-02-28T09:36:05.748Z,67.39
2023-02-28T09:41:15.159Z,65.40
2023-02-28T09:46:30.345Z,66.57
2023-02-28T09:51:47.646Z,66.23
2023-02-28T09:56:56.466Z,65.01
2023-02-28T10:02:06.808Z,66.67
2023-02-28T10:07:21.347Z,65.42
2023-02-28T10:12:27.056Z,64.83
2023-02-28T10:17:49.366Z,63.86
2023-02-28T10:23:08.057Z,64.21
2023-02-28T10:28:13.601Z,64.96
2023-02-28T10:33:25.926Z,63.96
2023-02-28T10:38:34.282Z,63.23
2023-02-28T10:43:39.739Z,63.21
2023-02-28T10:48:49.166Z,62.10
2023-02-28T10:54:02.626Z,62.38
2023-02-28T10:59:28.321Z,61.42
2023-02-28T11:04:40.285Z,61.56
2023-02-28T11:09:48.607Z,59.79
2023-02-28T11:14:55.612Z,60.13
2023-02-28T11:20:04.311Z,59.92
2023-02-28T11:25:12.087Z,58.64
2023-02-28T11:30:35.023Z,61.14
2023-02-28T11:35:41.562Z,58.90
2023-02-28T11:40:51.445Z,61.00
2023-02-28T11:46:08.743Z,60.19
2023-02-28T11:51:20.496Z,60.11
2023-02-28T11:56:29.251Z,60.40
2023-02-28T12:01:46.145Z,59.32
2023-02-28T12:06:58.378Z,59.85
2023-02-28T12:12:06.365Z,58.81
2023-02-28T12:17:22.045Z,59.48
2023-02-28T12:22:39.014Z,59.84
2023-02-28T12:27:46.657Z,59.77
2023-02-28T12:32:54.097Z,59.72
2023-02-28T12:38:04.305Z,58.91
2023-02-28T12:43:10.808Z,59.28
2023-02-28T12:48:17.535Z,58.51
2023-02-28T12:53:29.886Z,58.55
2023-02-28T12:58:38.123Z,58.90
2023-02-28T13:04:01.218Z,58.64
2023-02-28T13:09:11.377Z,58.59
2023-02-28T13:14:28.717Z,57.96
2023-02-28T13:19:34.498Z,57.26
2023-02-28T13:24:46.185Z,55.97
2023-02-28T13:29:50.241Z,54.63
2023-02-28T13:35:36.142Z,55.31
2023-02-28T13:40:42.011Z,55.27
2023-02-28T13:46:12.048Z,55.92
2023-02-28T13:51:40.924Z,56.06
2023-02-28T13:56:52.330Z,56.37
2023-02-28T14:02:05.459Z,56.60
2023-02-28T14:07:10.469Z,56.77
2023-02-28T14:12:56.801Z,55.63
2023-02-28T14:18:03.183Z,55.04
2023-02-28T14:23:14.770Z,55.10
2023-02-28T14:28:23.773Z,55.78
2023-02-28T14:33:34.553Z,56.12
2023-02-28T14:38:43.867Z,56.54
2023-02-28T14:43:55.823Z,57.49
2023-02-28T14:49:00.521Z,57.89
2023-02-28T14:54:05.573Z,58.12
2023-02-28T14:59:26.763Z,59.12
2023-02-28T15:04:32.991Z,59.71
2023-02-28T15:09:36.886Z,60.51
2023-02-28T15:14:45.684Z,60.75
2023-02-28T15:19:54.085Z,61.46
2023-02-28T15:24:58.922Z,61.07
2023-02-28T15:30:10.760Z,62.07
2023-02-28T15:35:28.549Z,63.08
2023-02-28T15:40:37.836Z,63.85
2023-02-28T15:45:47.486Z,64.23
2023-02-28T15:50:54.643Z,64.67
2023-02-28T15:56:03.188Z,67.42
2023-02-28T16:01:18.833Z,67.46
2023-02-28T16:06:36.135Z,67.73
2023-02-28T16:11:44.001Z,69.82
2023-02-28T16:16:51.306Z,71.58
2023-02-28T16:21:55.587Z,73.75
2023-02-28T16:26:59.941Z,76.18
2023-02-28T16:32:07.185Z,76.73
2023-02-28T16:37:16.808Z,80.13
2023-02-28T16:42:24.716Z,83.71
2023-02-28T16:47:32.807Z,82.89
2023-02-28T16:52:36.971Z,84.31
2023-02-28T16:57:42.076Z,87.22
2023-02-28T17:02:47.887Z,87.93
2023-02-28T17:07:52.336Z,89.05
2023-02-28T17:13:06.203Z,91.81
2023-02-28T17:18:20.918Z,95.45
2023-02-28T17:23:24.907Z,96.96
2023-02-28T17:28:28.998Z,97.30
2023-02-28T17:33:34.645Z,97.42
2023-02-28T17:38:38.777Z,97.27
2023-02-28T17:43:43.078Z,99.22
2023-02-28T17:48:48.621Z,99.70
2023-02-28T17:53:52.842Z,100.00
2023-02-28T17:58:58.791Z,100.00
2023-02-28T18:04:04.658Z,100.00
2023-02-28T18:09:08.985Z,100.00
2023-02-28T18:14:13.043Z,100.00
2023-02-28T18:19:18.773Z,100.00
2023-02-28T18:24:24.861Z,100.00
2023-02-28T18:29:31.967Z,100.00
2023-02-28T18:34:37.702Z,100.00
2023-02-28T18:39:41.768Z,100.00
2023-02-28T18:44:45.686Z,100.00
2023-02-28T18:49:51.342Z,100.00
2023-02-28T18:54:55.316Z,100.00
2023-02-28T18:59:59.548Z,100.00
2023-02-28T19:05:05.123Z,100.00
2023-02-28T19:10:10.580Z,100.00
2023-02-28T19:15:14.867Z,100.00
2023-02-28T19:20:20.394Z,100.00
2023-02-28T19:25:25.111Z,100.00
2023-02-28T19:30:29.476Z,100.00
2023-02-28T19:35:34.971Z,100.00
2023-02-28T19:40:39.341Z,100.00
2023-02-28T19:45:43.362Z,100.00
2023-02-28T19:50:48.776Z,100.00
2023-02-28T19:55:53.570Z,100.00
2023-02-28T20:01:01.454Z,100.00
2023-02-28T20:06:09.998Z,100.00
2023-02-28T20:11:15.601Z,100.00
2023-02-28T20:16:19.712Z,100.00
2023-02-28T20:21:25.238Z,100.00
2023-02-28T20:26:29.480Z,100.00
2023-02-28T20:31:33.649Z,100.00
2023-02-28T20:36:39.112Z,100.00
2023-02-28T20:41:43.435Z,100.00
2023-02-28T20:46:47.381Z,100.00
2023-02-28T20:51:52.647Z,100.00
2023-02-28T20:56:56.572Z,100.00
2023-02-28T21:02:00.850Z,100.00
2023-02-28T21:07:06.345Z,100.00
2023-02-28T21:12:10.756Z,100.00
2023-02-28T21:17:14.736Z,100.00
2023-02-28T21:22:19.970Z,100.00
2023-02-28T21:27:23.866Z,100.00
2023-02-28T21:32:27.757Z,100.00
2023-02-28T21:37:33.057Z,100.00
2023-02-28T21:42:37.196Z,100.00
2023-02-28T21:47:42.284Z,100.00
2023-02-28T21:52:47.979Z,100.00
2023-02-28T21:57:52.306Z,100.00
2023-02-28T22:02:57.369Z,100.00
2023-02-28T22:08:02.850Z,100.00
2023-02-28T22:13:06.974Z,100.00
2023-02-28T22:18:10.973Z,100.00
2023-02-28T22:23:16.426Z,100.00
2023-02-28T22:28:20.795Z,100.00
2023-02-28T22:33:24.985Z,100.00
2023-02-28T22:38:35.434Z,100.00
2023-02-28T22:43:40.045Z,100.00
2023-02-28T22:48:44.132Z,100.00
2023-02-28T22:53:51.222Z,100.00
2023-02-28T22:58:56.780Z,100.00
2023-02-28T23:04:01.579Z,100.00
2023-02-28T23:09:09.261Z,100.00
2023-02-28T23:14:15.656Z,100.00
2023-02-28T23:19:24.669Z,100.00
2023-02-28T23:24:32.766Z,100.00
2023-02-28T23:29:37.173Z,100.00
2023-02-28T23:34:41.387Z,100.00
2023-02-28T23:39:46.601Z,100.00
2023-02-28T23:44:50.899Z,100.00
2023-02-28T23:49:54.762Z,100.00
2023-02-28T23:55:01.691Z,100.00
